Time;durP1;ratioP1;P1;durP2;ratioP2;P2;SDS_P1;SDS_P2;PMS_P1;PMS_P2;Temp;Humidity;BMP_temperature;BMP_pressure;BME280_temperature;BME280_humidity;BME280_pressure;Samples;Min_cycle;Max_cycle;Signal;HPM_P1;HPM_P2
2021/05/09 00:01:59;;;;;;;3.95;2.67;;;;;;;11.05;46.37;100538.09;5027499;28;20053;-69
2021/05/09 00:04:26;;;;;;;5.38;2.97;;;;;;;11.01;46.80;100533.97;5001477;28;20050;-68
2021/05/09 00:06:55;;;;;;;6.85;3.17;;;;;;;11.01;46.78;100526.06;5007807;28;20518;-68
2021/05/09 00:09:22;;;;;;;4.03;2.60;;;;;;;11.04;46.80;100523.25;5009446;28;20065;-68
2021/05/09 00:11:48;;;;;;;4.72;3.70;;;;;;;11.11;46.65;100524.53;5031921;28;20045;-69
2021/05/09 00:14:15;;;;;;;4.88;2.80;;;;;;;11.02;46.65;100527.75;5024160;28;20605;-68
2021/05/09 00:16:42;;;;;;;5.28;3.10;;;;;;;11.13;46.42;100522.66;4990377;28;20364;-69
2021/05/09 00:19:09;;;;;;;5.40;3.08;;;;;;;11.11;46.89;100523.69;5012512;28;20585;-70
2021/05/09 00:21:35;;;;;;;4.13;3.13;;;;;;;11.19;46.78;100515.31;4997715;28;20053;-71
2021/05/09 00:24:02;;;;;;;4.95;3.53;;;;;;;11.20;46.52;100512.56;5010439;28;20053;-70
2021/05/09 00:26:29;;;;;;;4.47;3.20;;;;;;;11.14;47.15;100512.97;5001958;28;20050;-69
2021/05/09 00:28:56;;;;;;;4.43;3.20;;;;;;;11.15;46.54;100514.66;5003983;28;20079;-70
2021/05/09 00:31:22;;;;;;;10.20;3.83;;;;;;;11.16;46.61;100522.44;5013000;28;20061;-69
2021/05/09 00:37:56;;;;;;;4.97;3.42;;;;;;;11.19;46.73;100520.59;5020794;28;20036;-70
2021/05/09 00:40:23;;;;;;;7.93;2.92;;;;;;;11.13;46.88;100517.41;5020447;28;20038;-69
2021/05/09 00:42:50;;;;;;;9.85;3.22;;;;;;;11.16;46.78;100511.91;5001912;28;20050;-68
2021/05/09 00:45:16;;;;;;;7.82;2.78;;;;;;;11.18;46.60;100516.25;5018895;28;20049;-68
2021/05/09 00:47:43;;;;;;;5.25;3.35;;;;;;;11.22;46.80;100517.75;5006176;28;20049;-69
2021/05/09 00:50:10;;;;;;;5.72;3.28;;;;;;;11.24;46.68;100514.06;4990303;28;20168;-69
2021/05/09 00:52:39;;;;;;;5.75;3.22;;;;;;;11.27;46.68;100511.25;5008273;28;20137;-69
2021/05/09 00:55:08;;;;;;;5.47;3.20;;;;;;;11.28;46.90;100504.19;5023286;28;20461;-69
2021/05/09 00:57:36;;;;;;;4.45;3.17;;;;;;;11.33;46.69;100515.28;5016884;28;20050;-68
2021/05/09 01:00:06;;;;;;;5.00;2.90;;;;;;;11.20;47.04;100515.22;5020355;28;20531;-67
2021/05/09 01:02:33;;;;;;;7.13;3.25;;;;;;;11.23;47.27;100509.75;5010276;28;20069;-68
2021/05/09 01:05:02;;;;;;;5.28;3.35;;;;;;;11.24;47.11;100500.91;5029288;28;20148;-67
2021/05/09 01:07:29;;;;;;;5.88;3.28;;;;;;;11.31;46.54;100507.47;5005829;28;20042;-69
2021/05/09 01:09:58;;;;;;;5.68;3.15;;;;;;;11.29;46.75;100503.25;5028204;28;20172;-69
2021/05/09 01:12:24;;;;;;;7.40;3.30;;;;;;;11.30;46.89;100502.28;5004242;28;20043;-68
2021/05/09 01:14:52;;;;;;;4.35;3.00;;;;;;;11.30;46.91;100499.66;5016432;28;20133;-69
2021/05/09 01:17:19;;;;;;;6.85;3.00;;;;;;;11.35;47.17;100497.59;5030321;28;20572;-69
2021/05/09 01:19:45;;;;;;;7.63;2.83;;;;;;;11.30;47.61;100494.38;5012307;28;20081;-69
2021/05/09 01:22:12;;;;;;;4.85;3.05;;;;;;;11.33;47.26;100486.28;5011136;28;20506;-69
2021/05/09 01:24:39;;;;;;;4.10;2.88;;;;;;;11.29;47.31;100482.16;5004161;28;20049;-68
2021/05/09 01:27:07;;;;;;;6.15;2.95;;;;;;;11.35;47.10;100484.41;5013385;28;20491;-69
2021/05/09 01:29:36;;;;;;;8.40;3.03;;;;;;;11.30;47.43;100473.31;4989964;28;20113;-68
2021/05/09 01:32:05;;;;;;;4.25;3.03;;;;;;;11.32;47.09;100474.06;5027718;28;20057;-68
2021/05/09 01:34:36;;;;;;;5.70;3.17;;;;;;;11.28;47.43;100470.78;5011654;28;20045;-68
2021/05/09 01:37:04;;;;;;;4.65;3.28;;;;;;;11.32;47.47;100463.53;5023916;28;20063;-68
2021/05/09 01:39:31;;;;;;;8.18;3.25;;;;;;;11.25;47.85;100462.22;5004747;28;20097;-68
2021/05/09 01:42:00;;;;;;;5.65;2.97;;;;;;;11.27;48.01;100466.44;5023241;28;20339;-69
2021/05/09 01:48:38;;;;;;;5.93;3.15;;;;;;;11.27;48.16;100455.91;5024331;28;20060;-69
2021/05/09 01:51:05;;;;;;;8.13;3.33;;;;;;;11.28;47.93;100447.06;5025127;28;20582;-68
2021/05/09 01:53:32;;;;;;;4.78;3.50;;;;;;;11.26;48.32;100448.97;4996397;28;20044;-69
2021/05/09 01:55:59;;;;;;;6.22;3.20;;;;;;;11.26;48.37;100448.97;5024185;28;20136;-69
2021/05/09 01:58:25;;;;;;;6.05;3.47;;;;;;;11.26;48.47;100446.31;5027493;28;20071;-69
2021/05/09 02:00:52;;;;;;;6.03;3.55;;;;;;;11.30;48.43;100433.78;5006707;28;20144;-69
2021/05/09 02:03:19;;;;;;;6.57;4.10;;;;;;;11.31;48.48;100451.28;5026989;28;20052;-68
2021/05/09 02:05:45;;;;;;;7.47;3.10;;;;;;;11.30;48.78;100450.44;5008221;28;20041;-68
2021/05/09 02:08:13;;;;;;;6.13;3.25;;;;;;;11.32;48.49;100445.91;5013694;28;20049;-69
2021/05/09 02:10:39;;;;;;;5.90;3.38;;;;;;;11.25;48.50;100441.13;5005060;28;20044;-69
2021/05/09 02:13:06;;;;;;;4.88;3.15;;;;;;;11.26;48.83;100442.84;5007629;28;20080;-70
2021/05/09 02:15:33;;;;;;;5.82;3.10;;;;;;;11.25;48.72;100441.13;5027113;28;20049;-68
2021/05/09 02:18:00;;;;;;;6.32;3.00;;;;;;;11.27;48.95;100445.38;5023462;28;20042;-69
2021/05/09 02:20:27;;;;;;;5.65;3.15;;;;;;;11.23;49.11;100438.59;5025895;28;20531;-69
2021/05/09 02:22:53;;;;;;;6.15;2.88;;;;;;;11.21;49.37;100440.47;5012621;28;20045;-67
2021/05/09 02:25:20;;;;;;;4.50;2.88;;;;;;;11.22;49.20;100426.38;4995887;28;20121;-69
2021/05/09 02:27:47;;;;;;;7.55;3.40;;;;;;;11.23;49.25;100437.75;5019823;28;20414;-69
2021/05/09 02:30:14;;;;;;;4.45;2.75;;;;;;;11.26;49.55;100440.22;4992746;28;20045;-68
2021/05/09 02:32:41;;;;;;;5.97;3.25;;;;;;;11.18;49.77;100427.53;5021952;28;20046;-69
2021/05/09 02:35:07;;;;;;;5.50;2.90;;;;;;;11.21;49.69;100435.19;5000762;28;20105;-69
2021/05/09 02:37:34;;;;;;;5.80;2.80;;;;;;;11.20;49.59;100422.16;5001417;28;20133;-68
2021/05/09 02:40:01;;;;;;;4.43;2.83;;;;;;;11.12;50.09;100436.66;5010065;28;20140;-69
2021/05/09 02:42:27;;;;;;;4.10;3.20;;;;;;;11.12;50.25;100428.78;5005087;28;20212;-69
2021/05/09 02:44:55;;;;;;;4.65;2.60;;;;;;;11.13;49.96;100427.81;5021873;28;20048;-69
2021/05/09 02:47:28;;;;;;;12.00;3.42;;;;;;;11.12;50.21;100431.41;4999349;28;20072;-69
2021/05/09 02:49:56;;;;;;;4.25;3.05;;;;;;;11.11;50.24;100429.69;5009943;28;20096;-67
2021/05/09 02:52:23;;;;;;;5.45;2.85;;;;;;;11.08;50.54;100415.91;5005142;28;20085;-68
2021/05/09 02:54:51;;;;;;;4.10;2.70;;;;;;;11.08;50.54;100422.00;4988772;28;20061;-68
2021/05/09 02:57:17;;;;;;;4.50;2.97;;;;;;;11.10;50.51;100427.16;5026549;28;20144;-69
2021/05/09 02:59:44;;;;;;;6.03;3.30;;;;;;;11.12;50.45;100428.78;5001556;28;20049;-69
2021/05/09 03:02:11;;;;;;;5.75;3.55;;;;;;;11.12;50.75;100430.53;4988612;28;20049;-68
2021/05/09 03:04:38;;;;;;;5.30;3.25;;;;;;;11.08;50.96;100429.06;4998491;28;20067;-69
2021/05/09 03:07:06;;;;;;;4.72;3.00;;;;;;;11.04;50.98;100430.19;5028888;28;20081;-69
2021/05/09 03:09:32;;;;;;;4.07;3.00;;;;;;;11.03;50.86;100431.13;5022873;28;20370;-69
2021/05/09 03:11:59;;;;;;;4.80;2.45;;;;;;;11.01;51.57;100433.03;5022738;28;20071;-67
2021/05/09 03:14:26;;;;;;;8.00;3.20;;;;;;;10.96;51.60;100428.03;5018066;28;20064;-68
2021/05/09 03:16:53;;;;;;;4.82;3.45;;;;;;;10.96;51.41;100428.03;5007788;28;20061;-67
2021/05/09 03:19:19;;;;;;;4.30;2.80;;;;;;;11.02;51.36;100422.38;4994855;28;20119;-69
2021/05/09 03:21:46;;;;;;;4.32;3.10;;;;;;;10.92;51.74;100430.97;5021661;28;20049;-70
2021/05/09 03:24:13;;;;;;;3.75;2.58;;;;;;;10.80;52.23;100432.59;5018324;28;20511;-69
2021/05/09 03:26:40;;;;;;;4.63;2.70;;;;;;;10.78;52.00;100440.59;5008415;28;20053;-70
2021/05/09 03:29:07;;;;;;;6.32;2.85;;;;;;;10.76;52.47;100442.47;5014742;28;20060;-69
2021/05/09 03:31:34;;;;;;;5.20;3.13;;;;;;;10.72;53.07;100432.25;5008832;28;20519;-68
2021/05/09 03:34:01;;;;;;;4.50;2.95;;;;;;;10.69;52.67;100427.16;5022126;28;20064;-69
2021/05/09 03:36:28;;;;;;;4.70;3.08;;;;;;;10.59;52.91;100426.88;4999396;28;20176;-68
2021/05/09 03:39:03;;;;;;;5.03;3.05;;;;;;;10.55;53.15;100428.84;5032956;28;20404;-69
2021/05/09 03:41:29;;;;;;;5.18;2.50;;;;;;;10.56;53.30;100427.91;5013844;28;20469;-69
2021/05/09 03:43:56;;;;;;;5.72;2.90;;;;;;;10.53;53.43;100424.63;4995704;28;20045;-69
2021/05/09 03:46:23;;;;;;;5.10;2.70;;;;;;;10.60;53.59;100429.41;5012116;28;21053;-69
2021/05/09 03:48:49;;;;;;;5.28;2.83;;;;;;;10.58;53.71;100420.78;5022038;28;20048;-70
2021/05/09 03:51:16;;;;;;;4.20;3.05;;;;;;;10.68;53.21;100425.47;5008477;28;20097;-69
2021/05/09 03:53:43;;;;;;;7.90;3.35;;;;;;;10.79;52.78;100426.47;5008190;28;20042;-68
2021/05/09 03:56:09;;;;;;;4.97;2.85;;;;;;;10.77;53.46;100419.63;5027643;28;20076;-69
2021/05/09 03:58:36;;;;;;;4.13;2.67;;;;;;;10.88;52.74;100425.06;5028564;28;20053;-69
2021/05/09 04:01:03;;;;;;;4.32;2.92;;;;;;;10.90;53.06;100425.81;5025027;28;20087;-70
2021/05/09 04:03:31;;;;;;;9.30;2.80;;;;;;;10.99;52.81;100425.22;5017188;28;20038;-69
2021/05/09 04:05:58;;;;;;;3.78;2.65;;;;;;;11.12;52.60;100420.00;4992282;28;20052;-69
2021/05/09 04:08:26;;;;;;;5.55;3.05;;;;;;;11.22;51.97;100415.84;5029375;28;20468;-67
2021/05/09 04:10:55;;;;;;;6.05;2.70;;;;;;;11.55;51.57;100409.28;4998078;28;20049;-70
2021/05/09 04:13:22;;;;;;;4.07;3.10;;;;;;;11.66;51.36;100410.28;4992856;28;20053;-69
2021/05/09 04:15:49;;;;;;;5.72;2.60;;;;;;;11.71;51.09;100406.47;5008910;28;20091;-71
2021/05/09 04:18:16;;;;;;;5.38;2.90;;;;;;;11.95;50.43;100410.13;5025053;28;20515;-71
2021/05/09 04:20:43;;;;;;;6.05;3.45;;;;;;;12.24;50.05;100410.75;5024389;28;20060;-69
2021/05/09 04:23:18;;;;;;;6.43;2.75;;;;;;;12.83;48.22;100410.13;5011328;28;20478;-68
2021/05/09 04:25:49;;;;;;;3.92;2.92;;;;;;;13.78;46.18;100395.22;5025700;28;20059;-69
2021/05/09 04:28:17;;;;;;;4.70;2.92;;;;;;;14.75;43.97;100400.03;4990596;28;20064;-69
2021/05/09 04:30:44;;;;;;;3.97;2.67;;;;;;;14.71;42.83;100395.94;4997957;28;20041;-68
2021/05/09 04:33:10;;;;;;;7.78;2.88;;;;;;;14.28;43.91;100387.88;5025967;28;20057;-69
2021/05/09 04:35:40;;;;;;;3.95;2.83;;;;;;;13.67;45.27;100393.41;5033215;28;20132;-69
2021/05/09 04:38:08;;;;;;;6.50;3.47;;;;;;;13.68;45.74;100387.97;5011203;28;20050;-69
2021/05/09 04:40:34;;;;;;;3.20;2.33;;;;;;;14.26;44.37;100385.31;5012645;28;20124;-68
2021/05/09 04:43:09;;;;;;;3.85;2.70;;;;;;;14.27;44.62;100388.81;5026430;28;20140;-68
2021/05/09 04:45:36;;;;;;;5.43;3.08;;;;;;;14.41;44.06;100391.25;5011949;28;20292;-70
2021/05/09 04:48:03;;;;;;;6.00;3.38;;;;;;;15.15;42.87;100389.69;5015558;28;20046;-67
2021/05/09 04:50:30;;;;;;;4.80;2.70;;;;;;;16.29;40.65;100390.78;5007257;28;20045;-68
2021/05/09 04:52:57;;;;;;;8.07;3.20;;;;;;;17.55;37.90;100378.59;5027533;28;20304;-68
2021/05/09 04:55:23;;;;;;;3.67;2.60;;;;;;;18.82;35.22;100382.63;5008425;28;20504;-69
2021/05/09 04:57:50;;;;;;;4.45;3.25;;;;;;;19.57;33.54;100387.66;4996716;28;20045;-68
2021/05/09 05:00:17;;;;;;;3.53;2.53;;;;;;;20.32;32.38;100372.00;5001850;28;20326;-70
2021/05/09 05:02:48;;;;;;;6.20;3.10;;;;;;;20.70;31.54;100382.22;5011354;28;20132;-69
2021/05/09 05:05:15;;;;;;;5.28;3.33;;;;;;;20.82;31.46;100390.81;4988201;28;20049;-69
2021/05/09 05:07:42;;;;;;;6.15;3.30;;;;;;;21.12;30.42;100386.72;5025956;28;20053;-68
2021/05/09 05:10:09;;;;;;;6.03;2.70;;;;;;;20.74;31.24;100391.59;5021176;28;20049;-69
2021/05/09 05:12:36;;;;;;;5.68;2.58;;;;;;;20.94;30.49;100392.19;5031182;28;20059;-68
2021/05/09 05:15:03;;;;;;;3.65;2.45;;;;;;;21.06;30.59;100395.38;5022354;28;20045;-68
2021/05/09 05:17:29;;;;;;;3.92;2.80;;;;;;;20.94;30.93;100392.19;5024359;28;20136;-68
2021/05/09 05:19:56;;;;;;;4.78;2.60;;;;;;;21.00;30.83;100390.69;5009342;28;20052;-68
2021/05/09 05:22:23;;;;;;;5.63;2.83;;;;;;;22.18;29.40;100384.03;5027117;28;20176;-69
2021/05/09 05:24:50;;;;;;;5.80;2.60;;;;;;;22.44;28.81;100381.13;5003677;28;20038;-69
2021/05/09 05:27:17;;;;;;;4.78;2.70;;;;;;;22.61;28.43;100384.59;5085289;22;20113;-75
2021/05/09 05:29:43;;;;;;;5.65;2.65;;;;;;;23.46;27.51;100378.38;5018121;28;20050;-74
2021/05/09 05:32:11;;;;;;;3.53;2.53;;;;;;;24.18;26.36;100377.88;5034549;28;20061;-74
2021/05/09 05:34:38;;;;;;;3.83;2.88;;;;;;;23.45;26.92;100374.00;5023404;28;20081;-75
2021/05/09 05:37:04;;;;;;;3.83;2.42;;;;;;;23.56;27.01;100386.22;5002511;28;20057;-75
2021/05/09 05:39:35;;;;;;;4.68;2.58;;;;;;;23.99;26.51;100390.03;5029032;28;20367;-74
2021/05/09 05:42:03;;;;;;;3.42;2.40;;;;;;;24.78;25.24;100387.63;4992803;28;20056;-75
2021/05/09 05:44:29;;;;;;;5.85;2.58;;;;;;;24.40;26.01;100398.53;5010522;28;20054;-74
2021/05/09 05:46:56;;;;;;;3.15;2.58;;;;;;;24.15;26.05;100389.88;5023629;28;20294;-75
2021/05/09 05:49:23;;;;;;;3.10;2.10;;;;;;;22.82;27.88;100396.53;4989689;28;20060;-74
2021/05/09 05:51:50;;;;;;;4.15;2.80;;;;;;;22.61;28.76;100403.38;5027640;28;20089;-75
2021/05/09 05:54:16;;;;;;;7.90;2.70;;;;;;;21.87;30.25;100410.69;5026098;28;20085;-74
2021/05/09 05:56:43;;;;;;;3.47;2.38;;;;;;;19.40;33.88;100410.72;4978647;28;20059;-74
2021/05/09 05:59:10;;;;;;;6.07;3.35;;;;;;;19.17;34.36;100405.81;5010650;28;20049;-75
2021/05/09 06:01:36;;;;;;;4.82;2.17;;;;;;;19.35;34.59;100408.50;5006915;28;20073;-74
2021/05/09 06:04:04;;;;;;;3.25;2.55;;;;;;;19.99;33.49;100409.22;5008784;28;20078;-75
2021/05/09 06:06:30;;;;;;;3.95;2.40;;;;;;;20.74;32.49;100404.16;5020479;28;20144;-74
2021/05/09 06:08:57;;;;;;;8.38;3.10;;;;;;;20.58;32.50;100404.94;5004413;28;20054;-74
2021/05/09 06:11:24;;;;;;;3.67;2.65;;;;;;;21.66;31.22;100399.66;5030235;28;20063;-74
2021/05/09 06:13:50;;;;;;;4.03;2.28;;;;;;;21.89;30.23;100395.31;5004112;28;20402;-74
2021/05/09 06:16:17;;;;;;;6.38;2.53;;;;;;;21.83;30.81;100404.00;5011309;28;20057;-76
2021/05/09 06:18:44;;;;;;;3.72;2.13;;;;;;;22.09;30.20;100398.44;5005215;28;20065;-73
2021/05/09 06:21:11;;;;;;;3.83;2.50;;;;;;;21.48;31.48;100395.31;4994990;28;20410;-75
2021/05/09 06:23:38;;;;;;;4.50;2.67;;;;;;;23.23;29.31;100397.16;4996673;28;20408;-76
2021/05/09 06:26:05;;;;;;;2.67;2.10;;;;;;;23.35;28.55;100403.81;5010614;28;20136;-75
2021/05/09 06:28:31;;;;;;;3.97;2.30;;;;;;;24.08;27.78;100388.91;5016160;28;20048;-76
2021/05/09 06:30:58;;;;;;;4.57;1.80;;;;;;;23.42;28.84;100396.72;5005637;28;20141;-75
2021/05/09 06:33:25;;;;;;;3.42;2.80;;;;;;;23.26;29.00;100394.13;5008619;28;20046;-74
2021/05/09 06:35:53;;;;;;;5.03;2.65;;;;;;;22.32;30.35;100390.53;5013035;28;20102;-74
2021/05/09 06:38:20;;;;;;;3.38;1.95;;;;;;;23.14;29.13;100393.69;5023309;28;20587;-75
2021/05/09 06:40:47;;;;;;;5.05;2.20;;;;;;;23.22;29.19;100399.03;5007207;28;20045;-74
2021/05/09 06:43:14;;;;;;;5.30;2.78;;;;;;;22.33;30.80;100392.19;5010682;28;20058;-74
2021/05/09 06:45:41;;;;;;;3.60;2.10;;;;;;;21.82;31.59;100396.97;5027068;28;20531;-74
2021/05/09 06:48:08;;;;;;;6.53;2.60;;;;;;;23.10;29.84;100395.09;5032490;28;20522;-75
2021/05/09 06:50:35;;;;;;;5.20;2.60;;;;;;;23.61;29.24;100397.25;4994696;28;20049;-74
2021/05/09 06:53:02;;;;;;;5.57;2.83;;;;;;;24.52;27.62;100395.38;5028329;28;20166;-75
2021/05/09 06:55:29;;;;;;;6.22;2.40;;;;;;;25.06;27.19;100393.13;5023144;28;20061;-74
2021/05/09 06:57:56;;;;;;;10.48;2.63;;;;;;;25.25;26.72;100392.53;5016214;28;20068;-75
2021/05/09 07:00:25;;;;;;;3.90;2.15;;;;;;;27.11;24.24;100384.88;5026861;28;20057;-75
2021/05/09 07:02:52;;;;;;;2.67;1.88;;;;;;;27.58;23.71;100383.91;4985583;28;20061;-74
2021/05/09 07:05:18;;;;;;;3.58;1.75;;;;;;;27.48;23.60;100386.19;5016734;28;20050;-75
2021/05/09 07:07:50;;;;;;;3.28;1.98;;;;;;;28.73;22.67;100381.69;4997702;28;20064;-76
2021/05/09 07:10:18;;;;;;;2.20;1.80;;;;;;;28.94;21.71;100388.66;4994027;28;20042;-74
2021/05/09 07:12:45;;;;;;;2.38;2.03;;;;;;;28.90;21.97;100395.53;5018941;28;20068;-74
2021/05/09 07:15:13;;;;;;;5.10;2.00;;;;;;;28.32;22.25;100384.69;5002362;28;20077;-76
2021/05/09 07:17:42;;;;;;;4.32;2.20;;;;;;;28.51;22.35;100395.50;5000409;28;20157;-75
2021/05/09 07:20:09;;;;;;;2.65;1.73;;;;;;;29.51;21.24;100387.69;5002471;28;20085;-75
2021/05/09 07:22:43;;;;;;;5.53;1.80;;;;;;;30.46;20.27;100381.19;5010577;28;20041;-74
2021/05/09 07:25:10;;;;;;;2.43;1.70;;;;;;;30.63;19.97;100379.53;5018495;28;20057;-74
2021/05/09 07:27:36;;;;;;;4.30;1.70;;;;;;;29.46;21.65;100381.28;5018660;28;20156;-74
2021/05/09 07:30:03;;;;;;;5.55;1.52;;;;;;;29.30;22.31;100387.22;4998282;28;20136;-74
2021/05/09 07:32:30;;;;;;;2.58;1.80;;;;;;;30.29;20.67;100375.53;5027683;28;20144;-73
2021/05/09 07:34:58;;;;;;;3.72;1.92;;;;;;;31.20;19.75;100379.19;5026188;28;20037;-76
2021/05/09 07:37:25;;;;;;;2.75;1.63;;;;;;;31.80;19.19;100375.56;5006865;28;20057;-76
2021/05/09 07:39:51;;;;;;;5.32;2.28;;;;;;;30.70;20.15;100377.53;5005149;28;20061;-76
2021/05/09 07:42:18;;;;;;;5.40;1.80;;;;;;;30.58;20.82;100373.97;5011351;28;20060;-76
2021/05/09 07:44:45;;;;;;;4.50;1.70;;;;;;;31.29;20.04;100379.72;4977655;28;20065;-76
2021/05/09 07:47:12;;;;;;;5.35;1.88;;;;;;;31.03;20.29;100373.59;5017958;28;20053;-76
2021/05/09 07:49:39;;;;;;;3.42;1.85;;;;;;;30.49;20.47;100370.72;5007743;28;20448;-76
2021/05/09 07:52:05;;;;;;;3.15;2.00;;;;;;;30.13;21.25;100363.38;5013516;28;21321;-76
2021/05/09 07:54:32;;;;;;;4.43;1.80;;;;;;;29.39;21.80;100367.75;5019211;28;20049;-76
2021/05/09 07:56:59;;;;;;;2.63;1.83;;;;;;;31.12;19.92;100364.06;5002403;28;20170;-76
2021/05/09 07:59:26;;;;;;;2.47;1.75;;;;;;;31.01;20.20;100362.13;5030113;28;20045;-76
2021/05/09 08:01:53;;;;;;;4.30;1.80;;;;;;;30.10;21.75;100365.69;5004033;28;20140;-74
2021/05/09 08:04:19;;;;;;;5.30;1.80;;;;;;;30.02;21.29;100361.38;5024841;28;20049;-76
2021/05/09 08:06:46;;;;;;;2.97;1.50;;;;;;;30.80;20.80;100366.16;5021014;28;20112;-75
2021/05/09 08:09:13;;;;;;;2.65;1.65;;;;;;;30.17;21.33;100358.31;5020174;28;20156;-76
2021/05/09 08:11:40;;;;;;;3.25;1.70;;;;;;;30.27;21.06;100355.94;5031370;28;20100;-76
2021/05/09 08:14:06;;;;;;;5.38;1.65;;;;;;;30.66;21.16;100360.03;5004036;28;20072;-76
2021/05/09 08:16:33;;;;;;;3.47;1.52;;;;;;;30.27;21.09;100362.19;5027139;28;20843;-76
2021/05/09 08:19:00;;;;;;;4.97;1.73;;;;;;;30.22;21.62;100353.06;5025166;28;20057;-76
2021/05/09 08:21:26;;;;;;;2.58;1.58;;;;;;;29.84;21.78;100364.06;5025843;28;20129;-76
2021/05/09 08:23:53;;;;;;;2.65;1.25;;;;;;;31.32;20.76;100352.06;5028394;28;20049;-77
2021/05/09 08:26:21;;;;;;;5.07;1.45;;;;;;;31.28;20.81;100357.13;5006943;28;20165;-77
2021/05/09 08:28:47;;;;;;;2.85;1.33;;;;;;;31.43;20.21;100352.09;5021927;28;20587;-77
2021/05/09 08:31:16;;;;;;;4.53;1.63;;;;;;;29.70;22.45;100361.47;5028273;28;20480;-77
2021/05/09 08:33:43;;;;;;;5.25;1.80;;;;;;;27.54;25.18;100363.72;5008421;28;20045;-77
2021/05/09 08:36:10;;;;;;;3.67;1.60;;;;;;;25.80;27.52;100367.75;5027668;28;20106;-76
2021/05/09 08:38:37;;;;;;;3.00;1.52;;;;;;;24.74;29.71;100370.19;5029303;28;20076;-78
2021/05/09 08:41:04;;;;;;;2.97;1.50;;;;;;;24.41;30.32;100359.84;5005585;28;20049;-76
2021/05/09 08:43:30;;;;;;;5.75;1.35;;;;;;;24.33;30.15;100354.53;5020196;28;20125;-76
2021/05/09 08:45:59;;;;;;;2.15;1.30;;;;;;;23.64;31.43;100354.75;5020243;28;20384;-81
2021/05/09 08:48:30;;;;;;;5.07;1.67;;;;;;;23.59;31.90;100351.72;5012755;28;20048;-78
2021/05/09 08:50:57;;;;;;;3.10;1.55;;;;;;;23.33;32.19;100349.44;5009354;28;20080;-77
2021/05/09 08:53:25;;;;;;;4.53;1.77;;;;;;;22.95;33.08;100340.47;4992991;28;21288;-75
2021/05/09 08:55:52;;;;;;;4.25;1.65;;;;;;;22.73;33.48;100336.72;4989966;28;20053;-78
2021/05/09 08:58:18;;;;;;;3.15;1.40;;;;;;;22.78;33.54;100342.38;5020387;28;20050;-76
2021/05/09 09:00:45;;;;;;;4.43;2.08;;;;;;;22.45;34.08;100337.19;5015520;28;20041;-78
2021/05/09 09:03:13;;;;;;;1.90;1.23;;;;;;;22.15;34.99;100338.78;5001714;28;20052;-77
2021/05/09 09:05:44;;;;;;;3.47;1.40;;;;;;;22.24;34.63;100343.16;4998806;28;20111;-78
2021/05/09 09:08:12;;;;;;;2.38;1.80;;;;;;;22.29;35.07;100334.59;5005036;28;20044;-77
2021/05/09 09:10:48;;;;;;;2.47;1.20;;;;;;;22.36;34.69;100332.88;5026301;28;20108;-79
2021/05/09 09:13:27;;;;;;;2.55;1.30;;;;;;;22.54;34.81;100337.97;5001818;28;20202;-76
2021/05/09 09:15:58;;;;;;;2.38;1.35;;;;;;;22.58;34.73;100331.25;5019131;28;20074;-77
2021/05/09 09:18:34;;;;;;;3.05;1.45;;;;;;;22.54;34.54;100332.63;5004278;28;20360;-77
2021/05/09 09:21:21;;;;;;;5.45;1.17;;;;;;;22.95;34.57;100327.06;5027439;28;20107;-77
2021/05/09 09:23:49;;;;;;;4.28;1.10;;;;;;;22.88;34.38;100326.06;5024821;28;20037;-78
2021/05/09 09:26:40;;;;;;;5.25;1.17;;;;;;;22.58;34.59;100319.69;5013074;28;20197;-77
2021/05/09 09:29:25;;;;;;;1.65;1.00;;;;;;;22.82;34.00;100321.41;5024568;28;20053;-78
2021/05/09 09:31:54;;;;;;;4.20;1.10;;;;;;;23.09;33.56;100315.53;5030074;28;20053;-76
2021/05/09 09:34:22;;;;;;;3.47;1.17;;;;;;;23.22;33.51;100317.63;5011314;28;20125;-78
2021/05/09 09:36:49;;;;;;;3.75;1.75;;;;;;;23.36;33.08;100319.50;5010382;28;20055;-78
2021/05/09 09:39:15;;;;;;;1.45;1.35;;;;;;;23.15;33.48;100309.47;5000324;28;20121;-76
2021/05/09 09:41:49;;;;;;;3.67;1.10;;;;;;;23.21;33.79;100306.06;5006224;28;20046;-76
2021/05/09 09:44:17;;;;;;;6.80;1.40;;;;;;;23.12;34.45;100304.44;5001967;28;20053;-77
2021/05/09 09:46:51;;;;;;;2.28;1.00;;;;;;;23.37;33.77;100304.22;5000470;28;20053;-75
2021/05/09 09:49:31;;;;;;;2.40;0.93;;;;;;;23.66;33.73;100293.59;5013962;28;20100;-76
2021/05/09 09:51:58;;;;;;;2.10;1.10;;;;;;;23.73;33.48;100305.28;5016085;28;20152;-77
2021/05/09 09:54:35;;;;;;;1.63;0.90;;;;;;;23.77;33.57;100305.72;5018405;28;20395;-76
2021/05/09 09:57:06;;;;;;;2.17;0.90;;;;;;;23.50;33.51;100291.00;5000490;28;20102;-77
2021/05/09 09:59:34;;;;;;;1.63;1.00;;;;;;;23.80;33.83;100294.63;5016493;28;20073;-77
2021/05/09 10:02:07;;;;;;;3.50;0.95;;;;;;;23.64;33.34;100292.94;5023378;28;20041;-77
2021/05/09 10:04:35;;;;;;;4.45;0.98;;;;;;;23.94;33.90;100293.78;5009544;28;20049;-77
2021/05/09 10:07:06;;;;;;;2.47;1.00;;;;;;;24.23;33.58;100290.25;4989186;28;20145;-76
2021/05/09 10:09:32;;;;;;;2.65;1.10;;;;;;;24.48;32.57;100298.88;5006006;28;20053;-75
2021/05/09 10:12:00;;;;;;;3.05;1.00;;;;;;;24.40;32.96;100290.06;4971183;28;20050;-78
2021/05/09 10:14:29;;;;;;;2.90;1.15;;;;;;;24.07;33.11;100289.63;5012383;28;20049;-77
2021/05/09 10:16:56;;;;;;;2.53;0.90;;;;;;;24.02;33.51;100292.88;5004542;28;20370;-79
2021/05/09 10:19:24;;;;;;;4.28;1.15;;;;;;;24.28;33.16;100296.94;4997438;28;20587;-77
2021/05/09 10:21:52;;;;;;;1.45;0.90;;;;;;;23.94;33.53;100290.25;5005890;28;20507;-76
2021/05/09 10:24:22;;;;;;;1.83;0.90;;;;;;;24.00;33.73;100279.63;5007689;28;20056;-79
2021/05/09 10:26:53;;;;;;;1.27;0.80;;;;;;;23.89;34.03;100280.06;4989097;28;20058;-78
2021/05/09 10:29:39;;;;;;;3.20;1.38;;;;;;;24.07;33.55;100277.00;5008634;28;20624;-78
2021/05/09 10:32:18;;;;;;;2.72;1.00;;;;;;;23.98;34.19;100275.44;5004914;28;20077;-77
2021/05/09 10:34:51;;;;;;;1.27;0.77;;;;;;;23.87;34.17;100276.75;5002624;28;20071;-77
2021/05/09 10:37:39;;;;;;;2.25;1.00;;;;;;;24.00;33.70;100265.31;5007376;28;20053;-78
2021/05/09 10:40:18;;;;;;;3.28;0.98;;;;;;;24.40;33.22;100261.28;4988180;28;20132;-77
2021/05/09 10:42:46;;;;;;;2.17;0.90;;;;;;;24.58;33.21;100258.19;4987628;28;20061;-77
2021/05/09 10:45:32;;;;;;;1.92;0.90;;;;;;;24.76;33.15;100268.53;4984832;28;20867;-76
2021/05/09 10:48:18;;;;;;;2.40;1.13;;;;;;;24.23;32.75;100263.38;5005509;28;20255;-77
2021/05/09 10:51:03;;;;;;;1.75;1.10;;;;;;;24.16;33.31;100265.13;5000935;28;21368;-79
2021/05/09 10:53:29;;;;;;;2.75;1.10;;;;;;;23.97;33.21;100253.09;4988529;28;20072;-77
2021/05/09 10:55:57;;;;;;;4.25;1.58;;;;;;;24.22;32.72;100258.16;5006245;28;20049;-77
2021/05/09 10:58:46;;;;;;;4.93;1.38;;;;;;;24.26;33.10;100254.91;5002372;28;20189;-78
2021/05/09 11:06:01;;;;;;;2.55;1.30;;;;;;;24.19;33.30;100259.38;5001442;28;20041;-79
2021/05/09 11:09:02;;;;;;;1.80;0.80;;;;;;;24.12;33.71;100246.84;4988700;28;20677;-78
2021/05/09 11:11:28;;;;;;;6.22;1.13;;;;;;;23.81;34.20;100242.50;4987685;28;20055;-78
2021/05/09 11:14:01;;;;;;;2.42;1.27;;;;;;;24.07;32.66;100251.97;5004452;28;21174;-77
2021/05/09 11:16:34;;;;;;;1.02;0.90;;;;;;;24.09;33.24;100248.09;4991485;28;20049;-77
2021/05/09 11:19:08;;;;;;;6.20;1.58;;;;;;;24.29;32.53;100242.94;4990896;28;20718;-77
2021/05/09 11:21:44;;;;;;;1.57;0.80;;;;;;;24.28;32.13;100230.53;5005147;28;20097;-76
2021/05/09 11:24:21;;;;;;;1.80;0.85;;;;;;;24.30;32.07;100238.38;4992643;28;20461;-78
2021/05/09 11:26:51;;;;;;;3.70;1.20;;;;;;;24.33;32.03;100232.63;4991826;28;20064;-77
2021/05/09 11:29:21;;;;;;;1.45;1.00;;;;;;;24.15;32.05;100228.50;4989390;28;20256;-80
2021/05/09 11:31:56;;;;;;;1.58;1.05;;;;;;;24.22;31.31;100228.56;5004543;28;20273;-76
2021/05/09 11:34:24;;;;;;;1.05;0.77;;;;;;;24.12;30.78;100228.88;4989337;28;20683;-77
2021/05/09 11:36:53;;;;;;;4.00;1.02;;;;;;;24.18;30.93;100228.13;4975577;28;20657;-77
2021/05/09 11:39:37;;;;;;;2.92;0.80;;;;;;;24.33;30.16;100213.81;5010588;28;20123;-79
2021/05/09 11:42:11;;;;;;;2.85;1.05;;;;;;;24.12;30.43;100220.78;5009371;28;20041;-77
2021/05/09 11:44:56;;;;;;;2.27;1.03;;;;;;;24.16;31.16;100218.56;4990025;28;20419;-77